Latest Coastal Weather Observations for Lord Howe Island

IDN60701

Issued at 5:41 pm EDT Monday 27 February 2017 (issued every 10 minutes, with the page automatically refreshed every 10 minutes)

About coastal observations | Map of coastal stations | Coastal observations for NSW | Marine services | Other Formats
Station Details ID: 200839 Name: LORD HOWE ISLAND AERO Lat: -31.54 Lon: 159.08 Height: 5.0 m
Data from the previous 72 hours. | See also: Recent months at Lord Howe Island
Date/Time
EDT
Temp
°C
Wind Pressure Rain since
9am
mm
Weather Cloud Vis
km
Sea
Height
m
Swell
Dir  Spd
kts
Gust
kts
hPa Trend Height
m
Period
s
Dir
27/05:30pm 24.5 E 17 22 1020.4 - 0.0 - - 10 - - - -
27/05:00pm 24.9 E 18 23 1020.3 - 0.0 - Partly cloudy 10 - - - -
27/04:30pm 25.2 E 19 23 1020.1 - 0.0 - Partly cloudy 10 - - - -
27/04:00pm 25.3 E 18 22 1020.0 - 0.0 - Partly cloudy 10 - - - -
27/03:30pm 25.6 E 16 21 1020.1 - 0.0 - Partly cloudy 10 - - - -
27/03:00pm 26.1 E 17 22 1020.3 - 0.0 - Mostly clear 10 - - - -
27/02:30pm 26.2 E 18 21 1020.2 - 0.0 - Mostly clear 10 - - - -
27/02:00pm 26.0 E 18 22 1020.4 - 0.0 - Mostly clear 10 - - - -
27/01:30pm 25.9 E 18 22 1020.6 - 0.0 - Mostly clear 10 - - - -
27/01:00pm 25.8 E 17 20 1020.9 - 0.0 - Mostly clear 10 - - - -
27/12:30pm 25.5 E 17 21 1021.1 - 0.0 - Mostly clear 10 - - - -
27/12:00pm 25.7 E 17 22 1021.2 - 0.0 - Partly cloudy 10 - - - -
27/11:30am 25.8 E 16 21 1021.2 - 0.0 - Mostly clear 10 - - - -
27/11:00am 25.5 E 16 20 1021.2 - 0.0 - Mostly clear 10 - - - -
27/10:30am 25.7 E 15 19 1021.3 - 0.0 - Mostly clear 10 - - - -
27/10:00am 25.0 E 15 18 1021.2 - 0.0 - Mostly clear 10 - - - -
27/09:30am 25.4 E 16 20 1021.1 - 0.0 - Mostly clear 10 - - - -
27/09:00am 25.1 E 15 19 1020.8 - 0.2 - Partly cloudy 10 - - - -
27/08:30am 24.5 E 16 19 1020.7 - 0.2 - Mostly clear 10 - - - -
27/08:00am 24.0 E 15 18 1020.6 - 0.2 - Mostly clear 10 - - - -
27/07:30am 24.0 E 15 19 1020.3 - 0.2 - Partly cloudy 10 - - - -
27/07:00am 23.5 E 14 17 1020.1 - 0.2 - Partly cloudy 10 - - - -
27/06:30am 22.6 NE 17 25 1019.7 - 0.2 - Partly cloudy 10 - - - -
27/06:00am 23.1 E 14 17 1019.3 - 0.2 - Mostly clear 10 - - - -
27/05:30am 23.1 E 14 19 1018.9 - 0.2 - Partly cloudy 10 - - - -
27/05:00am 23.1 E 13 18 1018.7 - 0.2 - Partly cloudy 10 - - - -
27/04:30am 23.2 E 13 17 1018.7 - 0.2 - Partly cloudy 10 - - - -
27/04:00am 23.1 E 13 17 1018.7 - 0.2 - Partly cloudy 10 - - - -
27/03:30am 23.1 ENE 13 17 1018.7 - 0.2 - Partly cloudy 10 - - - -
27/03:00am 23.1 ENE 13 17 1018.7 - 0.2 - Mostly clear 10 - - - -
27/02:30am 23.1 ENE 13 17 1018.9 - 0.2 - Partly cloudy 10 - - - -
27/02:00am 23.0 ENE 13 16 1019.0 - 0.2 - Partly cloudy 10 - - - -
27/01:30am 23.2 ENE 13 16 1019.1 - 0.2 - Partly cloudy 10 - - - -
27/01:00am 23.1 ENE 13 17 1019.1 - 0.2 - Partly cloudy 10 - - - -
27/12:30am 23.1 ENE 13 17 1019.3 - 0.2 - Partly cloudy 10 - - - -
27/12:00am 23.1 ENE 14 19 1019.3 - 0.2 - Mostly clear 10 - - - -
 
Date/Time
EDT
Temp
°C
Wind Pressure Rain since
9am
mm
Weather Cloud Vis
km
Sea
Height
m
Swell
Dir  Spd
kts
Gust
kts
hPa Trend Height
m
Period
s
Dir
26/11:30pm 23.2 ENE 14 19 1019.2 - 0.2 - - 10 - - - -
26/11:00pm 23.3 ENE 14 17 1019.4 - 0.2 - - 10 - - - -
26/10:30pm 23.4 ENE 14 19 1019.6 - 0.2 - Partly cloudy 10 - - - -
26/10:00pm 23.5 E 13 18 1019.6 - 0.2 - Partly cloudy 10 - - - -
26/09:30pm 23.5 ENE 13 18 1019.4 - 0.2 - - 10 - - - -
26/09:00pm 23.4 ENE 14 18 1019.3 - 0.2 - Mostly clear 10 - - - -
26/08:30pm 23.6 E 13 17 1019.1 - 0.2 - Partly cloudy 10 - - - -
26/08:00pm 23.5 E 14 16 1018.6 - 0.2 - - 10 - - - -
26/07:30pm 23.5 ENE 11 15 1018.3 - 0.2 - Partly cloudy 10 - - - -
26/07:00pm 23.6 E 10 13 1018.2 - 0.2 - - 10 - - - -
26/06:30pm 23.8 ENE 11 14 1018.0 - 0.2 - Partly cloudy 10 - - - -
26/06:00pm 24.2 E 11 14 1017.5 - 0.2 - - 10 - - - -
26/05:30pm 24.6 E 11 12 1017.3 - 0.2 - - 10 - - - -
26/05:00pm 25.4 E 9 11 1017.1 - 0.2 - Partly cloudy 10 - - - -
26/04:30pm 25.3 E 9 12 1017.1 - 0.2 - Partly cloudy 10 - - - -
26/04:00pm 25.6 E 11 14 1017.2 - 0.2 - - 10 - - - -
26/03:30pm 25.6 E 9 12 1017.2 - 0.2 - - 10 - - - -
26/03:00pm 26.2 E 8 11 1017.3 - 0.2 - - 10 - - - -
26/02:30pm 25.5 E 8 11 1017.4 - 0.2 - - 10 - - - -
26/02:00pm 25.7 ENE 9 12 1017.6 - 0.2 - Partly cloudy 10 - - - -
26/01:30pm 26.1 ENE 9 12 1017.6 - 0.2 - Partly cloudy 10 - - - -
26/01:00pm 25.9 NE 9 11 1017.6 - 0.2 - - 10 - - - -
26/12:30pm 26.0 NE 9 10 1017.6 - 0.2 - - 10 - - - -
26/12:00pm 26.3 ENE 7 9 1017.5 - 0.2 - - 10 - - - -
26/11:30am 25.9 NE 8 10 1017.5 - 0.2 - - 10 - - - -
26/11:00am 25.8 NE 8 10 1017.5 - 0.2 - - 10 - - - -
26/10:30am 25.6 NE 7 8 1017.4 - 0.2 - - 10 - - - -
26/10:00am 25.7 NE 7 9 1017.4 - 0.0 - - 10 - - - -
26/09:30am 25.1 NE 7 8 1017.2 - 0.0 - Partly cloudy 10 - - - -
26/09:00am 24.6 ENE 8 11 1017.0 - 10.0 - - 10 - - - -
26/08:30am 24.5 ENE 9 11 1016.8 - 10.0 - - 10 - - - -
26/08:00am 24.1 ENE 9 11 1016.5 - 10.0 - - 10 - - - -
26/07:30am 23.8 NE 7 9 1016.6 - 10.0 - - 10 - - - -
26/07:00am 23.2 ENE 8 10 1016.2 - 10.0 - - 10 - - - -
26/06:30am 22.6 ENE 8 10 1015.8 - 10.0 - - 10 - - - -
26/06:00am 22.5 E 7 9 1015.4 S 10.0 Fine Mostly clear 20 - - - -
26/05:30am 22.4 ENE 9 11 1015.0 - 10.0 - Partly cloudy 10 - - - -
26/05:00am 22.4 ENE 8 11 1014.7 - 10.0 - - 10 - - - -
26/04:30am 22.5 ENE 9 11 1014.6 - 10.0 - - 10 - - - -
26/04:00am 22.4 ENE 7 9 1014.9 - 10.0 - - 10 - - - -
26/03:30am 22.4 ENE 8 10 1014.9 - 10.0 - - 10 - - - -
26/03:00am 22.5 ENE 6 9 1015.0 - 10.0 - - 10 - - - -
26/02:30am 22.5 NE 10 13 1015.0 - 10.0 - - 10 - - - -
26/02:00am 22.8 ENE 11 14 1015.5 - 10.0 - Partly cloudy 10 - - - -
26/01:30am 22.8 ENE 12 14 1015.5 - 10.0 - Partly cloudy 10 - - - -
26/01:00am 22.4 NE 10 12 1016.0 - 10.0 - Partly cloudy 10 - - - -
26/12:30am 22.4 NNE 9 11 1016.1 - 10.0 - Partly cloudy - - - - -
26/12:00am 22.6 NE 9 11 1016.3 - 9.2 - Cloudy 10 - - - -
 
Date/Time
EDT
Temp
°C
Wind Pressure Rain since
9am
mm
Weather Cloud Vis
km
Sea
Height
m
Swell
Dir  Spd
kts
Gust
kts
hPa Trend Height
m
Period
s
Dir
25/11:30pm 22.5 NE 5 9 1016.1 - 9.0 - Partly cloudy 9 - - - -
25/11:00pm 22.1 SE 5 6 1016.6 - 9.0 - Partly cloudy 10 - - - -
25/10:30pm 21.9 SSE 3 5 1016.6 - 9.0 - Partly cloudy 10 - - - -
25/10:00pm 22.3 NE 7 9 1016.4 - 9.0 - Partly cloudy 10 - - - -
25/09:30pm 21.9 E 5 6 1016.4 - 9.0 - Partly cloudy 10 - - - -
25/09:25pm 21.8 E 4 6 1016.3 - 9.0 - Partly cloudy 10 - - - -
25/09:00pm 21.8 SE 5 8 1016.3 - 6.8 - Cloudy 3 - - - -
25/08:57pm 22.0 ESE 6 9 1016.3 - 5.6 - Partly cloudy 5 - - - -
25/08:33pm 22.3 SW 3 11 1016.2 - 3.8 - Partly cloudy 10 - - - -
25/08:30pm 21.7 SW 1 9 1016.2 - 3.8 - Partly cloudy 10 - - - -
25/08:00pm 21.5 CALM 0 0 1015.6 - 3.8 - - 10 - - - -
25/07:30pm 22.3 CALM 0 0 1015.6 - 3.8 - Cloudy 10 - - - -
25/07:00pm 22.6 CALM 0 0 1015.5 - 3.8 - Cloudy 10 - - - -
25/06:30pm 22.9 SW 1 3 1015.3 - 3.8 - Partly cloudy 10 - - - -
25/06:25pm 22.9 SW 2 5 1015.2 - 3.8 - Partly cloudy 10 - - - -
25/06:00pm 24.2 NNW 1 5 1015.1 - 3.8 - Mostly cloudy 10 - - - -
25/05:30pm 24.6 NNE 5 6 1014.9 - 3.8 - Partly cloudy 10 - - - -
25/05:17pm 25.2 NNE 6 7 1014.8 - 3.8 - Partly cloudy 10 - - - -
25/05:00pm 24.6 NE 5 6 1014.8 - 3.8 - Partly cloudy 10 - - - -
25/04:30pm 24.4 NNE 7 8 1014.8 - 3.8 - - 10 - - - -
25/04:00pm 24.3 NNE 5 8 1014.9 - 3.8 - - 10 - - - -
25/03:30pm 23.8 ENE 5 8 1015.0 - 3.8 - Partly cloudy 10 - - - -
25/03:00pm 23.5 ENE 8 10 1015.3 R 3.8 Recent precip. Mostly cloudy 25 - - - -
25/02:30pm 24.7 ENE 5 6 1015.5 - 3.8 - Partly cloudy 10 - - - -
25/02:00pm 24.7 ENE 5 8 1015.7 - 3.8 - Partly cloudy 10 - - - -
25/01:50pm 24.2 NNE 3 6 1015.8 - 3.8 - Partly cloudy 10 - - - -
25/01:30pm 21.8 E 6 7 1016.2 - 3.4 - Partly cloudy 3 - - - -
25/01:13pm 22.4 NE 10 15 1016.4 - 0.2 - Partly cloudy 6 - - - -
25/01:00pm 23.0 NNE 13 15 1016.2 - 0.0 - Partly cloudy 10 - - - -
25/12:38pm 24.8 N 3 5 1016.1 - 0.0 - Partly cloudy 10 - - - -
25/12:30pm 24.6 W 4 6 1016.1 - 0.0 - Partly cloudy 10 - - - -
25/12:00pm 24.2 NNE 4 5 1016.3 - 0.0 - - 10 - - - -
25/11:30am 24.5 NE 4 6 1016.3 - 0.0 - Partly cloudy 10 - - - -
25/11:00am 24.7 NE 5 9 1016.7 - 0.0 - Partly cloudy 10 - - - -
25/10:30am 24.9 NE 5 7 1017.0 - 0.0 - Partly cloudy 10 - - - -
25/10:00am 24.9 NE 6 8 1016.9 - 0.0 - - 10 - - - -
25/09:30am 24.3 NE 6 8 1017.1 - 0.0 - Partly cloudy 10 - - - -
25/09:00am 24.3 NE 7 8 1017.0 S 4.6 Fine Partly cloudy 25 - - - -
25/08:30am 23.9 NE 6 8 1016.8 - 4.6 - Partly cloudy 10 - - - -
25/08:00am 23.0 NE 6 7 1016.6 - 4.6 - Partly cloudy 10 - - - -
25/07:30am 23.0 ENE 2 5 1016.6 - 4.6 - Partly cloudy 10 - - - -
25/07:00am 21.7 NNE 7 13 1016.6 - 4.6 - Partly cloudy 10 - - - -
25/06:30am 21.5 NNE 10 13 1016.2 - 4.6 - Partly cloudy 10 - - - -
25/06:00am 20.6 S 4 - 1016.0 F - Recent precip. Mostly cloudy 12 - - - -
25/05:55am 20.7 S 4 5 1016.0 - 4.6 - Partly cloudy 8 - - - -
25/05:30am 20.7 NE 2 5 1016.1 - 4.2 - Partly cloudy 4 - - - -
25/05:08am 21.3 N 5 8 1015.9 - 1.2 - Partly cloudy 6 - - - -
25/05:05am 21.4 NNE 5 8 1015.9 - 0.8 - Partly cloudy 10 - - - -
25/05:00am 21.4 N 5 7 1015.9 - 0.8 - Partly cloudy 10 - - - -
25/04:53am 21.4 N 3 5 1015.8 - 0.8 - Partly cloudy 10 - - - -
25/04:33am 21.3 W 3 5 1015.8 - 0.8 - Partly cloudy 10 - - - -
25/04:30am 21.4 SW 3 5 1015.9 - 0.8 - Partly cloudy 10 - - - -
25/04:00am 21.7 WSW 1 4 1015.8 - 0.6 - Partly cloudy 10 - - - -
25/03:30am 21.7 NW 3 4 1015.9 - 0.6 - Partly cloudy 10 - - - -
25/03:00am 21.9 NNW 4 7 1015.9 - 0.6 - Cloudy 10 - - - -
25/02:45am 22.2 SW 2 4 1016.0 - 0.6 - Partly cloudy 10 - - - -
25/02:30am 22.1 W 2 4 1016.1 - 0.6 - Partly cloudy 10 - - - -
25/02:19am 22.2 N 5 9 1016.0 - 0.6 - Partly cloudy 9 - - - -
25/02:00am 22.3 N 7 10 1016.2 - 0.4 - Partly cloudy 10 - - - -
25/01:46am 22.6 NNE 9 13 1016.4 - 0.4 - Partly cloudy 10 - - - -
25/01:30am 23.4 ENE 11 13 1016.4 - 0.4 - Partly cloudy 10 - - - -
25/01:00am 23.2 ENE 9 12 1016.6 - 0.4 - Partly cloudy 10 - - - -
25/12:33am 23.3 ENE 9 12 1016.8 - 0.4 - Partly cloudy 10 - - - -
25/12:30am 23.3 ENE 10 12 1016.8 - 0.4 - Partly cloudy 10 - - - -
25/12:19am 23.4 ENE 10 12 1016.9 - 0.4 - Partly cloudy 10 - - - -
25/12:00am 23.4 ENE 10 12 1017.2 - 0.4 - - 10 - - - -
 
Date/Time
EDT
Temp
°C
Wind Pressure Rain since
9am
mm
Weather Cloud Vis
km
Sea
Height
m
Swell
Dir  Spd
kts
Gust
kts
hPa Trend Height
m
Period
s
Dir
24/11:30pm 23.5 ENE 10 12 1017.4 - 0.4 - Partly cloudy 10 - - - -
24/11:00pm 23.5 ENE 10 12 1017.7 - 0.4 - - 10 - - - -
24/10:30pm 23.5 ENE 10 12 1017.9 - 0.4 - - 10 - - - -
24/10:00pm 23.5 ENE 11 12 1017.9 - 0.4 - - 10 - - - -
24/09:30pm 23.6 ENE 11 13 1017.9 - 0.4 - - 10 - - - -
24/09:00pm 23.7 ENE 11 13 1017.9 - 0.4 - Mostly clear 10 - - - -
24/08:30pm 23.6 ENE 10 13 1017.7 - 0.4 - - 10 - - - -
24/08:00pm 23.8 ENE 10 13 1017.4 - 0.4 - - 10 - - - -
24/07:30pm 23.8 ENE 11 13 1017.1 - 0.4 - Partly cloudy 10 - - - -
24/07:21pm 23.8 ENE 10 13 1017.1 - 0.4 - Partly cloudy 10 - - - -
24/07:00pm 23.9 ENE 10 12 1017.0 - 0.4 - Partly cloudy 10 - - - -
24/06:59pm 23.9 ENE 10 12 1017.0 - 0.4 - Partly cloudy 10 - - - -
24/06:45pm 23.9 ENE 10 13 1016.9 - 0.4 - Partly cloudy 10 - - - -
24/06:30pm 23.9 ENE 10 14 1016.7 - 0.4 - Partly cloudy 10 - - - -
24/06:04pm 24.2 ENE 11 14 1016.5 - 0.4 - Partly cloudy 10 - - - -
24/06:00pm 24.3 ENE 12 14 1016.5 - 0.4 - Cloudy 10 - - - -

Other Formats:

Comma delimited format used in spreadsheet applications
http://www.bom.gov.au/fwo/IDN60701/IDN60701.94995.axf

JavaScript Object Notation format (JSON) in row-major order
http://www.bom.gov.au/fwo/IDN60701/IDN60701.94995.json